sensor_id;sensor_type;location;lat;lon;timestamp;temperature;humidity
5346;DHT22;2695;49.444;11.054;2023-11-19T00:00:56;5.90;99.90
5346;DHT22;2695;49.444;11.054;2023-11-19T00:03:24;5.80;99.90
5346;DHT22;2695;49.444;11.054;2023-11-19T00:05:53;5.80;99.90
5346;DHT22;2695;49.444;11.054;2023-11-19T00:08:22;5.90;99.90
5346;DHT22;2695;49.444;11.054;2023-11-19T00:10:51;5.90;99.90
5346;DHT22;2695;49.444;11.054;2023-11-19T00:13:19;6.00;99.90
5346;DHT22;2695;49.444;11.054;2023-11-19T00:15:47;6.00;99.90
5346;DHT22;2695;49.444;11.054;2023-11-19T00:18:15;5.90;99.90
5346;DHT22;2695;49.444;11.054;2023-11-19T00:20:43;5.90;99.90
5346;DHT22;2695;49.444;11.054;2023-11-19T00:23:12;5.90;99.90
5346;DHT22;2695;49.444;11.054;2023-11-19T00:25:40;6.00;99.90
5346;DHT22;2695;49.444;11.054;2023-11-19T00:28:08;5.90;99.90
5346;DHT22;2695;49.444;11.054;2023-11-19T00:30:36;6.00;99.90
5346;DHT22;2695;49.444;11.054;2023-11-19T00:33:05;6.00;99.90
5346;DHT22;2695;49.444;11.054;2023-11-19T00:35:32;6.00;99.90
5346;DHT22;2695;49.444;11.054;2023-11-19T00:38:00;6.10;99.90
5346;DHT22;2695;49.444;11.054;2023-11-19T00:40:31;6.10;99.90
5346;DHT22;2695;49.444;11.054;2023-11-19T00:42:59;6.10;99.90
5346;DHT22;2695;49.444;11.054;2023-11-19T00:45:27;6.10;99.90
5346;DHT22;2695;49.444;11.054;2023-11-19T00:47:56;6.10;99.90
5346;DHT22;2695;49.444;11.054;2023-11-19T00:50:26;6.00;99.90
5346;DHT22;2695;49.444;11.054;2023-11-19T00:52:54;6.10;99.90
5346;DHT22;2695;49.444;11.054;2023-11-19T00:55:22;6.10;99.90
5346;DHT22;2695;49.444;11.054;2023-11-19T00:57:51;6.00;99.90
5346;DHT22;2695;49.444;11.054;2023-11-19T01:00:20;6.00;99.90
5346;DHT22;2695;49.444;11.054;2023-11-19T01:02:50;6.00;99.90
5346;DHT22;2695;49.444;11.054;2023-11-19T01:05:19;6.00;99.90
5346;DHT22;2695;49.444;11.054;2023-11-19T01:07:49;6.00;99.90
5346;DHT22;2695;49.444;11.054;2023-11-19T01:10:20;6.10;99.90
5346;DHT22;2695;49.444;11.054;2023-11-19T01:12:48;6.10;99.90
5346;DHT22;2695;49.444;11.054;2023-11-19T01:15:18;6.10;99.90
5346;DHT22;2695;49.444;11.054;2023-11-19T01:17:46;6.10;99.90
5346;DHT22;2695;49.444;11.054;2023-11-19T01:20:17;6.20;99.90
5346;DHT22;2695;49.444;11.054;2023-11-19T01:22:45;6.20;99.90
5346;DHT22;2695;49.444;11.054;2023-11-19T01:25:15;6.20;99.90
5346;DHT22;2695;49.444;11.054;2023-11-19T01:27:43;6.30;99.90
5346;DHT22;2695;49.444;11.054;2023-11-19T01:30:15;6.30;99.90
5346;DHT22;2695;49.444;11.054;2023-11-19T01:32:44;6.30;99.90
5346;DHT22;2695;49.444;11.054;2023-11-19T01:35:12;6.30;99.90
5346;DHT22;2695;49.444;11.054;2023-11-19T01:37:41;6.30;99.90
5346;DHT22;2695;49.444;11.054;2023-11-19T01:40:10;6.30;99.90
5346;DHT22;2695;49.444;11.054;2023-11-19T01:42:39;6.30;99.90
5346;DHT22;2695;49.444;11.054;2023-11-19T01:45:08;6.30;99.90
5346;DHT22;2695;49.444;11.054;2023-11-19T01:47:37;6.30;99.90
5346;DHT22;2695;49.444;11.054;2023-11-19T01:50:08;6.30;99.90
5346;DHT22;2695;49.444;11.054;2023-11-19T01:52:37;6.30;99.90
5346;DHT22;2695;49.444;11.054;2023-11-19T01:55:06;6.30;99.90
5346;DHT22;2695;49.444;11.054;2023-11-19T01:57:37;6.40;99.90
5346;DHT22;2695;49.444;11.054;2023-11-19T02:00:09;6.40;99.90
5346;DHT22;2695;49.444;11.054;2023-11-19T02:02:39;6.40;99.90
5346;DHT22;2695;49.444;11.054;2023-11-19T02:05:10;6.30;99.90
5346;DHT22;2695;49.444;11.054;2023-11-19T02:07:39;6.30;99.90
5346;DHT22;2695;49.444;11.054;2023-11-19T02:10:08;6.30;99.90
5346;DHT22;2695;49.444;11.054;2023-11-19T02:12:40;6.30;99.90
5346;DHT22;2695;49.444;11.054;2023-11-19T02:15:09;6.30;99.90
5346;DHT22;2695;49.444;11.054;2023-11-19T02:17:38;6.40;99.90
5346;DHT22;2695;49.444;11.054;2023-11-19T02:20:08;6.40;99.90
5346;DHT22;2695;49.444;11.054;2023-11-19T02:22:39;6.40;99.90
5346;DHT22;2695;49.444;11.054;2023-11-19T02:25:10;6.40;99.90
5346;DHT22;2695;49.444;11.054;2023-11-19T02:27:46;6.40;99.90
5346;DHT22;2695;49.444;11.054;2023-11-19T02:30:16;6.50;99.90
5346;DHT22;2695;49.444;11.054;2023-11-19T02:32:44;6.60;99.90
5346;DHT22;2695;49.444;11.054;2023-11-19T02:35:13;6.50;99.90
5346;DHT22;2695;49.444;11.054;2023-11-19T02:37:41;6.50;99.90
5346;DHT22;2695;49.444;11.054;2023-11-19T02:40:09;6.50;99.90
5346;DHT22;2695;49.444;11.054;2023-11-19T02:42:37;6.60;99.90
5346;DHT22;2695;49.444;11.054;2023-11-19T02:45:08;6.60;99.90
5346;DHT22;2695;49.444;11.054;2023-11-19T02:47:41;6.50;99.90
5346;DHT22;2695;49.444;11.054;2023-11-19T02:50:10;6.50;99.90
5346;DHT22;2695;49.444;11.054;2023-11-19T02:52:41;6.50;99.90
5346;DHT22;2695;49.444;11.054;2023-11-19T02:55:10;6.60;99.90
5346;DHT22;2695;49.444;11.054;2023-11-19T02:57:39;6.60;99.90
5346;DHT22;2695;49.444;11.054;2023-11-19T03:00:15;6.60;99.90
5346;DHT22;2695;49.444;11.054;2023-11-19T03:02:43;6.70;99.90
5346;DHT22;2695;49.444;11.054;2023-11-19T03:05:13;6.70;99.90
5346;DHT22;2695;49.444;11.054;2023-11-19T03:07:44;6.70;99.90
5346;DHT22;2695;49.444;11.054;2023-11-19T03:10:12;6.60;99.90
5346;DHT22;2695;49.444;11.054;2023-11-19T03:12:42;6.70;99.90
5346;DHT22;2695;49.444;11.054;2023-11-19T03:15:10;6.70;99.90
5346;DHT22;2695;49.444;11.054;2023-11-19T03:17:40;6.70;99.90
5346;DHT22;2695;49.444;11.054;2023-11-19T03:20:10;6.70;99.90
5346;DHT22;2695;49.444;11.054;2023-11-19T03:22:42;6.70;99.90
5346;DHT22;2695;49.444;11.054;2023-11-19T03:25:11;6.70;99.90
5346;DHT22;2695;49.444;11.054;2023-11-19T03:27:40;6.70;99.90
5346;DHT22;2695;49.444;11.054;2023-11-19T03:30:10;6.80;99.90
5346;DHT22;2695;49.444;11.054;2023-11-19T03:32:40;6.80;99.90
5346;DHT22;2695;49.444;11.054;2023-11-19T03:35:08;6.80;99.90
5346;DHT22;2695;49.444;11.054;2023-11-19T03:37:36;6.70;99.90
5346;DHT22;2695;49.444;11.054;2023-11-19T03:40:05;6.70;99.90
5346;DHT22;2695;49.444;11.054;2023-11-19T03:42:34;6.70;99.90
5346;DHT22;2695;49.444;11.054;2023-11-19T03:45:03;6.70;99.90
5346;DHT22;2695;49.444;11.054;2023-11-19T03:47:31;6.70;99.90
5346;DHT22;2695;49.444;11.054;2023-11-19T03:50:01;6.70;99.90
5346;DHT22;2695;49.444;11.054;2023-11-19T03:52:29;6.70;99.90
5346;DHT22;2695;49.444;11.054;2023-11-19T03:55:09;6.80;99.90
5346;DHT22;2695;49.444;11.054;2023-11-19T03:57:37;6.70;99.90
5346;DHT22;2695;49.444;11.054;2023-11-19T04:00:06;6.70;99.90
5346;DHT22;2695;49.444;11.054;2023-11-19T04:02:37;6.70;99.90
5346;DHT22;2695;49.444;11.054;2023-11-19T04:05:07;6.70;99.90
5346;DHT22;2695;49.444;11.054;2023-11-19T04:07:36;6.70;99.90
5346;DHT22;2695;49.444;11.054;2023-11-19T04:10:05;6.70;99.90
5346;DHT22;2695;49.444;11.054;2023-11-19T04:12:34;6.80;99.90
5346;DHT22;2695;49.444;11.054;2023-11-19T04:15:06;6.80;99.90
5346;DHT22;2695;49.444;11.054;2023-11-19T04:17:40;6.80;99.90
5346;DHT22;2695;49.444;11.054;2023-11-19T04:20:12;6.80;99.90
5346;DHT22;2695;49.444;11.054;2023-11-19T04:22:41;6.90;99.90
5346;DHT22;2695;49.444;11.054;2023-11-19T04:25:09;6.90;99.90
5346;DHT22;2695;49.444;11.054;2023-11-19T04:27:38;6.90;99.90
5346;DHT22;2695;49.444;11.054;2023-11-19T04:30:06;6.90;99.90
5346;DHT22;2695;49.444;11.054;2023-11-19T04:32:36;6.90;99.90
5346;DHT22;2695;49.444;11.054;2023-11-19T04:35:06;6.90;99.90
5346;DHT22;2695;49.444;11.054;2023-11-19T04:37:35;7.00;99.90
5346;DHT22;2695;49.444;11.054;2023-11-19T04:40:04;7.00;99.90
5346;DHT22;2695;49.444;11.054;2023-11-19T04:42:32;7.00;99.90
5346;DHT22;2695;49.444;11.054;2023-11-19T04:45:00;7.00;99.90
5346;DHT22;2695;49.444;11.054;2023-11-19T04:47:28;7.10;99.90
5346;DHT22;2695;49.444;11.054;2023-11-19T04:49:56;7.10;99.90
5346;DHT22;2695;49.444;11.054;2023-11-19T04:52:24;7.10;99.90
5346;DHT22;2695;49.444;11.054;2023-11-19T04:54:53;7.20;99.90
5346;DHT22;2695;49.444;11.054;2023-11-19T04:57:21;7.30;99.90
5346;DHT22;2695;49.444;11.054;2023-11-19T04:59:49;7.30;99.90
5346;DHT22;2695;49.444;11.054;2023-11-19T05:02:17;7.30;99.90
5346;DHT22;2695;49.444;11.054;2023-11-19T05:04:45;7.30;99.90
5346;DHT22;2695;49.444;11.054;2023-11-19T05:07:16;7.30;99.90
5346;DHT22;2695;49.444;11.054;2023-11-19T05:09:44;7.40;99.90
5346;DHT22;2695;49.444;11.054;2023-11-19T05:12:13;7.40;99.90
5346;DHT22;2695;49.444;11.054;2023-11-19T05:14:41;7.40;99.90
5346;DHT22;2695;49.444;11.054;2023-11-19T05:17:15;7.50;99.90
5346;DHT22;2695;49.444;11.054;2023-11-19T05:19:44;7.50;99.90
5346;DHT22;2695;49.444;11.054;2023-11-19T05:22:13;7.50;99.90
5346;DHT22;2695;49.444;11.054;2023-11-19T05:24:41;7.50;99.90
5346;DHT22;2695;49.444;11.054;2023-11-19T05:27:09;7.60;99.90
5346;DHT22;2695;49.444;11.054;2023-11-19T05:29:39;7.60;99.90
5346;DHT22;2695;49.444;11.054;2023-11-19T05:32:08;7.70;99.90
5346;DHT22;2695;49.444;11.054;2023-11-19T05:34:36;7.70;99.90
5346;DHT22;2695;49.444;11.054;2023-11-19T05:37:18;7.70;99.90
5346;DHT22;2695;49.444;11.054;2023-11-19T05:39:46;7.70;99.90
5346;DHT22;2695;49.444;11.054;2023-11-19T05:42:14;7.70;99.90
5346;DHT22;2695;49.444;11.054;2023-11-19T05:44:43;7.80;99.90
5346;DHT22;2695;49.444;11.054;2023-11-19T05:47:11;7.80;99.90
5346;DHT22;2695;49.444;11.054;2023-11-19T05:49:39;7.80;99.90
5346;DHT22;2695;49.444;11.054;2023-11-19T05:52:07;7.80;99.90
5346;DHT22;2695;49.444;11.054;2023-11-19T05:54:36;7.90;99.90
5346;DHT22;2695;49.444;11.054;2023-11-19T05:57:04;8.00;99.90
5346;DHT22;2695;49.444;11.054;2023-11-19T05:59:33;8.00;99.90
5346;DHT22;2695;49.444;11.054;2023-11-19T06:02:04;8.00;99.90
5346;DHT22;2695;49.444;11.054;2023-11-19T06:04:32;8.10;99.90
5346;DHT22;2695;49.444;11.054;2023-11-19T06:07:00;8.00;99.90
5346;DHT22;2695;49.444;11.054;2023-11-19T06:09:28;8.20;99.90
5346;DHT22;2695;49.444;11.054;2023-11-19T06:11:56;8.20;99.90
5346;DHT22;2695;49.444;11.054;2023-11-19T06:14:24;8.20;99.90
5346;DHT22;2695;49.444;11.054;2023-11-19T06:16:52;8.20;99.90
5346;DHT22;2695;49.444;11.054;2023-11-19T06:19:21;8.20;99.90
5346;DHT22;2695;49.444;11.054;2023-11-19T06:21:54;8.30;99.90
5346;DHT22;2695;49.444;11.054;2023-11-19T06:24:22;8.30;99.90
5346;DHT22;2695;49.444;11.054;2023-11-19T06:26:50;8.30;99.90
5346;DHT22;2695;49.444;11.054;2023-11-19T06:29:18;8.30;99.90
5346;DHT22;2695;49.444;11.054;2023-11-19T06:31:46;8.30;99.90
5346;DHT22;2695;49.444;11.054;2023-11-19T06:34:15;8.40;99.90
5346;DHT22;2695;49.444;11.054;2023-11-19T06:36:44;8.40;99.90
5346;DHT22;2695;49.444;11.054;2023-11-19T06:39:12;8.60;99.90
5346;DHT22;2695;49.444;11.054;2023-11-19T06:41:44;8.40;99.90
5346;DHT22;2695;49.444;11.054;2023-11-19T06:44:13;8.40;99.90
5346;DHT22;2695;49.444;11.054;2023-11-19T06:46:41;8.50;99.90
5346;DHT22;2695;49.444;11.054;2023-11-19T06:49:09;8.50;99.90
5346;DHT22;2695;49.444;11.054;2023-11-19T06:51:41;8.60;99.90
5346;DHT22;2695;49.444;11.054;2023-11-19T06:54:11;8.60;99.90
5346;DHT22;2695;49.444;11.054;2023-11-19T06:56:39;8.60;99.90
5346;DHT22;2695;49.444;11.054;2023-11-19T06:59:09;8.70;99.90
5346;DHT22;2695;49.444;11.054;2023-11-19T07:01:37;8.70;99.90
5346;DHT22;2695;49.444;11.054;2023-11-19T07:04:05;8.70;99.90
5346;DHT22;2695;49.444;11.054;2023-11-19T07:06:36;8.70;99.90
5346;DHT22;2695;49.444;11.054;2023-11-19T07:09:05;8.80;99.90
5346;DHT22;2695;49.444;11.054;2023-11-19T07:11:39;8.80;99.90
5346;DHT22;2695;49.444;11.054;2023-11-19T07:14:08;8.80;99.90
5346;DHT22;2695;49.444;11.054;2023-11-19T07:16:37;8.80;99.90
5346;DHT22;2695;49.444;11.054;2023-11-19T07:19:05;8.90;99.90
5346;DHT22;2695;49.444;11.054;2023-11-19T07:21:34;9.00;99.90
5346;DHT22;2695;49.444;11.054;2023-11-19T07:24:06;9.10;99.90
5346;DHT22;2695;49.444;11.054;2023-11-19T07:26:35;9.10;99.90
5346;DHT22;2695;49.444;11.054;2023-11-19T07:29:05;9.10;99.90
5346;DHT22;2695;49.444;11.054;2023-11-19T07:31:34;9.20;99.90
5346;DHT22;2695;49.444;11.054;2023-11-19T07:34:02;9.20;99.90
5346;DHT22;2695;49.444;11.054;2023-11-19T07:36:30;9.30;99.90
5346;DHT22;2695;49.444;11.054;2023-11-19T07:38:58;9.30;99.90
5346;DHT22;2695;49.444;11.054;2023-11-19T07:41:26;9.30;99.90
5346;DHT22;2695;49.444;11.054;2023-11-19T07:43:55;9.30;99.90
5346;DHT22;2695;49.444;11.054;2023-11-19T07:46:24;9.30;99.90
5346;DHT22;2695;49.444;11.054;2023-11-19T07:48:53;9.40;99.90
5346;DHT22;2695;49.444;11.054;2023-11-19T07:51:21;9.40;99.90
5346;DHT22;2695;49.444;11.054;2023-11-19T07:53:50;9.50;99.90
5346;DHT22;2695;49.444;11.054;2023-11-19T07:56:18;9.60;99.90
5346;DHT22;2695;49.444;11.054;2023-11-19T07:58:46;9.70;99.90
5346;DHT22;2695;49.444;11.054;2023-11-19T08:01:16;9.60;99.90
5346;DHT22;2695;49.444;11.054;2023-11-19T08:03:45;9.70;99.90
5346;DHT22;2695;49.444;11.054;2023-11-19T08:06:16;9.80;99.90
5346;DHT22;2695;49.444;11.054;2023-11-19T08:08:44;10.00;99.90
5346;DHT22;2695;49.444;11.054;2023-11-19T08:11:12;10.00;99.90
5346;DHT22;2695;49.444;11.054;2023-11-19T08:13:40;10.10;99.90
5346;DHT22;2695;49.444;11.054;2023-11-19T08:16:08;10.20;99.90
5346;DHT22;2695;49.444;11.054;2023-11-19T08:18:45;10.20;99.90
5346;DHT22;2695;49.444;11.054;2023-11-19T08:21:14;10.30;99.90
5346;DHT22;2695;49.444;11.054;2023-11-19T08:23:42;10.30;99.90
5346;DHT22;2695;49.444;11.054;2023-11-19T08:26:10;10.40;99.90
5346;DHT22;2695;49.444;11.054;2023-11-19T08:28:38;10.30;99.90
5346;DHT22;2695;49.444;11.054;2023-11-19T08:31:06;10.40;99.90
5346;DHT22;2695;49.444;11.054;2023-11-19T08:33:34;10.40;99.90
5346;DHT22;2695;49.444;11.054;2023-11-19T08:36:02;10.50;99.90
5346;DHT22;2695;49.444;11.054;2023-11-19T08:38:32;10.50;99.90
5346;DHT22;2695;49.444;11.054;2023-11-19T08:41:00;10.60;99.90
5346;DHT22;2695;49.444;11.054;2023-11-19T08:43:28;10.70;99.90
5346;DHT22;2695;49.444;11.054;2023-11-19T08:45:58;10.70;99.90
5346;DHT22;2695;49.444;11.054;2023-11-19T08:48:27;10.70;99.90
5346;DHT22;2695;49.444;11.054;2023-11-19T08:50:57;10.80;99.90
5346;DHT22;2695;49.444;11.054;2023-11-19T08:53:25;10.80;99.90
5346;DHT22;2695;49.444;11.054;2023-11-19T08:55:54;10.90;99.90
5346;DHT22;2695;49.444;11.054;2023-11-19T08:58:22;11.00;99.90
5346;DHT22;2695;49.444;11.054;2023-11-19T09:00:50;11.10;99.90
5346;DHT22;2695;49.444;11.054;2023-11-19T09:03:18;11.20;99.90
5346;DHT22;2695;49.444;11.054;2023-11-19T09:05:47;11.40;99.90
5346;DHT22;2695;49.444;11.054;2023-11-19T09:08:17;11.50;99.90
5346;DHT22;2695;49.444;11.054;2023-11-19T09:10:48;11.70;99.90
5346;DHT22;2695;49.444;11.054;2023-11-19T09:13:18;12.20;99.90
5346;DHT22;2695;49.444;11.054;2023-11-19T09:15:46;13.20;99.90
5346;DHT22;2695;49.444;11.054;2023-11-19T09:18:14;13.60;99.90
5346;DHT22;2695;49.444;11.054;2023-11-19T09:20:42;13.50;99.90
5346;DHT22;2695;49.444;11.054;2023-11-19T09:23:12;13.60;99.90
5346;DHT22;2695;49.444;11.054;2023-11-19T09:25:40;14.00;99.90
5346;DHT22;2695;49.444;11.054;2023-11-19T09:28:11;15.00;99.90
5346;DHT22;2695;49.444;11.054;2023-11-19T09:30:41;16.10;99.90
5346;DHT22;2695;49.444;11.054;2023-11-19T09:33:09;16.90;99.90
5346;DHT22;2695;49.444;11.054;2023-11-19T09:35:37;17.40;99.90
5346;DHT22;2695;49.444;11.054;2023-11-19T09:38:05;17.50;99.90
5346;DHT22;2695;49.444;11.054;2023-11-19T09:40:33;17.70;99.90
5346;DHT22;2695;49.444;11.054;2023-11-19T09:43:01;17.60;99.90
5346;DHT22;2695;49.444;11.054;2023-11-19T09:45:31;17.30;99.90
5346;DHT22;2695;49.444;11.054;2023-11-19T09:48:02;16.90;99.90
5346;DHT22;2695;49.444;11.054;2023-11-19T09:50:31;16.20;99.90
5346;DHT22;2695;49.444;11.054;2023-11-19T09:52:59;15.60;99.90
5346;DHT22;2695;49.444;11.054;2023-11-19T09:55:27;15.30;99.90
5346;DHT22;2695;49.444;11.054;2023-11-19T09:57:56;15.00;99.90
5346;DHT22;2695;49.444;11.054;2023-11-19T10:00:27;14.80;99.90
5346;DHT22;2695;49.444;11.054;2023-11-19T10:02:55;14.60;99.90
5346;DHT22;2695;49.444;11.054;2023-11-19T10:05:26;14.50;99.90
5346;DHT22;2695;49.444;11.054;2023-11-19T10:07:56;14.50;99.90
5346;DHT22;2695;49.444;11.054;2023-11-19T10:10:25;14.40;99.90
5346;DHT22;2695;49.444;11.054;2023-11-19T10:12:53;14.40;99.90
5346;DHT22;2695;49.444;11.054;2023-11-19T10:15:25;14.30;99.90
5346;DHT22;2695;49.444;11.054;2023-11-19T10:17:56;14.30;99.90
5346;DHT22;2695;49.444;11.054;2023-11-19T10:20:26;14.20;99.90
5346;DHT22;2695;49.444;11.054;2023-11-19T10:23:06;14.30;99.90
5346;DHT22;2695;49.444;11.054;2023-11-19T10:25:34;14.30;99.90
5346;DHT22;2695;49.444;11.054;2023-11-19T10:28:03;14.20;99.90
5346;DHT22;2695;49.444;11.054;2023-11-19T10:30:31;14.20;99.90
5346;DHT22;2695;49.444;11.054;2023-11-19T10:33:05;14.10;99.90
5346;DHT22;2695;49.444;11.054;2023-11-19T10:35:37;14.00;99.90
5346;DHT22;2695;49.444;11.054;2023-11-19T10:38:28;13.90;99.90
5346;DHT22;2695;49.444;11.054;2023-11-19T10:40:57;13.80;99.90
5346;DHT22;2695;49.444;11.054;2023-11-19T10:43:25;13.60;99.90
5346;DHT22;2695;49.444;11.054;2023-11-19T10:46:09;13.40;99.90
5346;DHT22;2695;49.444;11.054;2023-11-19T10:48:38;13.40;99.90
5346;DHT22;2695;49.444;11.054;2023-11-19T10:51:08;13.40;99.90
5346;DHT22;2695;49.444;11.054;2023-11-19T10:53:45;13.70;99.90
5346;DHT22;2695;49.444;11.054;2023-11-19T10:56:25;14.50;99.90
5346;DHT22;2695;49.444;11.054;2023-11-19T10:59:08;15.40;99.90
5346;DHT22;2695;49.444;11.054;2023-11-19T11:01:53;16.20;99.90
5346;DHT22;2695;49.444;11.054;2023-11-19T11:04:23;16.80;99.90
5346;DHT22;2695;49.444;11.054;2023-11-19T11:06:54;16.90;99.90
5346;DHT22;2695;49.444;11.054;2023-11-19T11:09:26;16.70;99.90
5346;DHT22;2695;49.444;11.054;2023-11-19T11:11:55;16.50;99.90
5346;DHT22;2695;49.444;11.054;2023-11-19T11:14:25;16.30;99.90
5346;DHT22;2695;49.444;11.054;2023-11-19T11:16:56;16.00;99.90
5346;DHT22;2695;49.444;11.054;2023-11-19T11:19:26;15.90;99.90
5346;DHT22;2695;49.444;11.054;2023-11-19T11:21:56;15.60;99.90
5346;DHT22;2695;49.444;11.054;2023-11-19T11:24:41;15.40;99.90
5346;DHT22;2695;49.444;11.054;2023-11-19T11:27:53;15.50;99.90
5346;DHT22;2695;49.444;11.054;2023-11-19T11:30:31;15.60;99.90
5346;DHT22;2695;49.444;11.054;2023-11-19T11:33:15;15.40;99.90
5346;DHT22;2695;49.444;11.054;2023-11-19T11:35:55;15.10;99.90
5346;DHT22;2695;49.444;11.054;2023-11-19T11:38:30;15.10;99.90
5346;DHT22;2695;49.444;11.054;2023-11-19T11:41:19;15.20;99.90
5346;DHT22;2695;49.444;11.054;2023-11-19T11:43:53;15.70;99.90
5346;DHT22;2695;49.444;11.054;2023-11-19T11:46:54;16.30;99.90
5346;DHT22;2695;49.444;11.054;2023-11-19T11:49:29;16.60;99.90
5346;DHT22;2695;49.444;11.054;2023-11-19T11:52:02;16.90;99.90
5346;DHT22;2695;49.444;11.054;2023-11-19T11:54:35;16.80;99.90
5346;DHT22;2695;49.444;11.054;2023-11-19T11:57:07;16.50;99.90
5346;DHT22;2695;49.444;11.054;2023-11-19T11:59:45;16.10;99.90
5346;DHT22;2695;49.444;11.054;2023-11-19T12:02:15;15.80;99.90
5346;DHT22;2695;49.444;11.054;2023-11-19T12:04:47;15.70;99.90
5346;DHT22;2695;49.444;11.054;2023-11-19T12:07:21;15.50;99.90
5346;DHT22;2695;49.444;11.054;2023-11-19T12:09:53;15.30;99.90
5346;DHT22;2695;49.444;11.054;2023-11-19T12:12:26;15.10;99.90
5346;DHT22;2695;49.444;11.054;2023-11-19T12:15:08;15.00;99.90
5346;DHT22;2695;49.444;11.054;2023-11-19T12:17:47;15.00;99.90
5346;DHT22;2695;49.444;11.054;2023-11-19T12:20:19;15.00;99.90
5346;DHT22;2695;49.444;11.054;2023-11-19T12:22:51;15.00;99.90
5346;DHT22;2695;49.444;11.054;2023-11-19T12:25:23;15.00;99.90
5346;DHT22;2695;49.444;11.054;2023-11-19T12:27:53;15.10;99.90
5346;DHT22;2695;49.444;11.054;2023-11-19T12:30:22;15.40;99.90
5346;DHT22;2695;49.444;11.054;2023-11-19T12:33:23;15.40;99.90
5346;DHT22;2695;49.444;11.054;2023-11-19T12:37:05;15.50;99.90
5346;DHT22;2695;49.444;11.054;2023-11-19T12:39:39;15.50;99.90
5346;DHT22;2695;49.444;11.054;2023-11-19T12:42:09;15.50;99.90
5346;DHT22;2695;49.444;11.054;2023-11-19T12:44:39;15.50;99.90
5346;DHT22;2695;49.444;11.054;2023-11-19T12:47:07;15.50;99.90
5346;DHT22;2695;49.444;11.054;2023-11-19T12:49:38;15.30;99.90
5346;DHT22;2695;49.444;11.054;2023-11-19T12:52:12;15.30;99.90
5346;DHT22;2695;49.444;11.054;2023-11-19T12:54:40;15.10;99.90
5346;DHT22;2695;49.444;11.054;2023-11-19T12:57:10;15.00;99.90
5346;DHT22;2695;49.444;11.054;2023-11-19T12:59:38;14.90;99.90
5346;DHT22;2695;49.444;11.054;2023-11-19T13:02:06;14.90;99.90
5346;DHT22;2695;49.444;11.054;2023-11-19T13:04:34;14.80;99.90
5346;DHT22;2695;49.444;11.054;2023-11-19T13:07:03;14.80;99.90
5346;DHT22;2695;49.444;11.054;2023-11-19T13:09:33;14.90;99.90
5346;DHT22;2695;49.444;11.054;2023-11-19T13:12:14;14.80;99.90
5346;DHT22;2695;49.444;11.054;2023-11-19T13:14:43;14.80;99.90
5346;DHT22;2695;49.444;11.054;2023-11-19T13:17:14;14.70;99.90
5346;DHT22;2695;49.444;11.054;2023-11-19T13:19:43;14.60;99.90
5346;DHT22;2695;49.444;11.054;2023-11-19T13:22:14;14.70;99.90
5346;DHT22;2695;49.444;11.054;2023-11-19T13:24:42;14.70;99.90
5346;DHT22;2695;49.444;11.054;2023-11-19T13:27:10;14.70;99.90
5346;DHT22;2695;49.444;11.054;2023-11-19T13:29:40;14.80;99.90
5346;DHT22;2695;49.444;11.054;2023-11-19T13:32:08;14.90;99.90
5346;DHT22;2695;49.444;11.054;2023-11-19T13:34:36;15.00;99.90
5346;DHT22;2695;49.444;11.054;2023-11-19T13:37:06;15.10;99.90
5346;DHT22;2695;49.444;11.054;2023-11-19T13:39:35;15.20;99.90
5346;DHT22;2695;49.444;11.054;2023-11-19T13:42:03;15.30;99.90
5346;DHT22;2695;49.444;11.054;2023-11-19T13:44:34;15.20;99.90
5346;DHT22;2695;49.444;11.054;2023-11-19T13:47:04;15.30;99.90
5346;DHT22;2695;49.444;11.054;2023-11-19T13:49:33;15.30;99.90
5346;DHT22;2695;49.444;11.054;2023-11-19T13:52:01;15.40;99.90
5346;DHT22;2695;49.444;11.054;2023-11-19T13:54:29;15.20;99.90
5346;DHT22;2695;49.444;11.054;2023-11-19T13:56:57;15.10;99.90
5346;DHT22;2695;49.444;11.054;2023-11-19T13:59:25;14.90;99.90
5346;DHT22;2695;49.444;11.054;2023-11-19T14:01:53;14.80;99.90
5346;DHT22;2695;49.444;11.054;2023-11-19T14:04:23;14.80;99.90
5346;DHT22;2695;49.444;11.054;2023-11-19T14:06:51;14.70;99.90
5346;DHT22;2695;49.444;11.054;2023-11-19T14:09:22;14.70;99.90
5346;DHT22;2695;49.444;11.054;2023-11-19T14:11:50;14.60;99.90
5346;DHT22;2695;49.444;11.054;2023-11-19T14:14:18;14.50;99.90
5346;DHT22;2695;49.444;11.054;2023-11-19T14:16:46;14.50;99.90
5346;DHT22;2695;49.444;11.054;2023-11-19T14:19:17;14.40;99.90
5346;DHT22;2695;49.444;11.054;2023-11-19T14:21:54;14.30;99.90
5346;DHT22;2695;49.444;11.054;2023-11-19T14:24:22;14.30;99.90
5346;DHT22;2695;49.444;11.054;2023-11-19T14:26:51;14.20;99.90
5346;DHT22;2695;49.444;11.054;2023-11-19T14:29:18;14.10;99.90
5346;DHT22;2695;49.444;11.054;2023-11-19T14:31:50;14.00;99.90
5346;DHT22;2695;49.444;11.054;2023-11-19T14:34:18;14.00;99.90
5346;DHT22;2695;49.444;11.054;2023-11-19T14:36:46;13.90;99.90
5346;DHT22;2695;49.444;11.054;2023-11-19T14:39:17;13.90;99.90
5346;DHT22;2695;49.444;11.054;2023-11-19T14:41:46;13.90;99.90
5346;DHT22;2695;49.444;11.054;2023-11-19T14:44:14;13.90;99.90
5346;DHT22;2695;49.444;11.054;2023-11-19T14:46:42;13.70;99.90
5346;DHT22;2695;49.444;11.054;2023-11-19T14:49:11;13.70;99.90
5346;DHT22;2695;49.444;11.054;2023-11-19T14:51:40;13.80;99.90
5346;DHT22;2695;49.444;11.054;2023-11-19T14:54:09;13.80;99.90
5346;DHT22;2695;49.444;11.054;2023-11-19T14:56:38;13.70;99.90
5346;DHT22;2695;49.444;11.054;2023-11-19T14:59:06;13.60;99.90
5346;DHT22;2695;49.444;11.054;2023-11-19T15:01:35;13.70;99.90
5346;DHT22;2695;49.444;11.054;2023-11-19T15:04:04;13.80;99.90
5346;DHT22;2695;49.444;11.054;2023-11-19T15:06:33;13.80;99.90
5346;DHT22;2695;49.444;11.054;2023-11-19T15:09:02;13.80;99.90
5346;DHT22;2695;49.444;11.054;2023-11-19T15:11:30;13.80;99.90
5346;DHT22;2695;49.444;11.054;2023-11-19T15:14:01;13.80;99.90
5346;DHT22;2695;49.444;11.054;2023-11-19T15:16:30;13.70;99.90
5346;DHT22;2695;49.444;11.054;2023-11-19T15:19:01;13.50;99.90
5346;DHT22;2695;49.444;11.054;2023-11-19T15:21:30;13.50;99.90
5346;DHT22;2695;49.444;11.054;2023-11-19T15:23:59;13.40;99.90
5346;DHT22;2695;49.444;11.054;2023-11-19T15:26:27;13.30;99.90
5346;DHT22;2695;49.444;11.054;2023-11-19T15:28:56;13.30;99.90
5346;DHT22;2695;49.444;11.054;2023-11-19T15:31:26;13.20;99.90
5346;DHT22;2695;49.444;11.054;2023-11-19T15:33:55;13.20;99.90
5346;DHT22;2695;49.444;11.054;2023-11-19T15:36:23;13.10;99.90
5346;DHT22;2695;49.444;11.054;2023-11-19T15:38:52;13.20;99.90
5346;DHT22;2695;49.444;11.054;2023-11-19T15:41:20;13.00;99.90
5346;DHT22;2695;49.444;11.054;2023-11-19T15:43:49;13.00;99.90
5346;DHT22;2695;49.444;11.054;2023-11-19T15:46:17;13.00;99.90
5346;DHT22;2695;49.444;11.054;2023-11-19T15:48:47;13.00;99.90
5346;DHT22;2695;49.444;11.054;2023-11-19T15:51:15;12.90;99.90
5346;DHT22;2695;49.444;11.054;2023-11-19T15:53:45;12.70;99.90
5346;DHT22;2695;49.444;11.054;2023-11-19T15:56:14;12.70;99.90
5346;DHT22;2695;49.444;11.054;2023-11-19T15:58:42;12.80;99.90
5346;DHT22;2695;49.444;11.054;2023-11-19T16:01:10;12.50;99.90
5346;DHT22;2695;49.444;11.054;2023-11-19T16:03:39;12.60;99.90
5346;DHT22;2695;49.444;11.054;2023-11-19T16:06:14;12.60;99.90
5346;DHT22;2695;49.444;11.054;2023-11-19T16:08:42;12.50;99.90
5346;DHT22;2695;49.444;11.054;2023-11-19T16:11:10;12.50;99.90
5346;DHT22;2695;49.444;11.054;2023-11-19T16:13:40;12.70;99.90